Detall de PIREP

Printer-friendly versionPDF version

[2012/01/04 18:38:00]
Flight IATA:CT1003
Pilot Number:026
Company ICAO:CAT
Aircraft Type:DC85/A
PAX:132
Departing Airport: LFMN
Destination Airport: EDDG
Alternate Airport:EDDV
Online: VATSIM
Route:BASIP Y15 ABN UM985 MONEB UN851 LOHRE Z850 HMM
Flight Level:F280
No Slew and time accel
No pause
Crash detect
Detect pilot in Cockpit between each 30 and 45 minutes
18:38 Zero fuel Weight: 179616 Lbs, Fuel Weight: 32991 Lbs
18:38 VATSIM:LFMN 041830Z 34006KT 320V020 9999 FEW030 09/06 Q1019 NOSIG
18:38 VATSIM:EDDG 041820Z 22016KT 9999 FEW030 BKN040 06/03 Q1009 NOSIG
18:39 VOICE CATALONIAN / CTP EDDG
18:40 Parking Brakes off
18:48 Take-off
18:48 Take off Weight: 211602 Lbs
18:48 Wind: 011º @ 006 Knots Heading: 043º
18:48 POS N43º 39´ 32´´ E007º 13´ 09´´
18:48 Gear Up: 166 Knots
18:48 Flaps:2 at 167 Knots
18:48 Flaps:1 at 176 Knots
18:50 Flaps:0 at 170 Knots
19:01 TOC
19:01 Fuel Weight: 27305 Lb
19:03 Wind:049º@034 Knots Heading: 038º Ground Speed: 437 Knots Altitude 28490 ft
19:18 Wind:359º@030 Knots Heading: 353º Ground Speed: 394 Knots Altitude 30898 ft
19:33 Wind:238º@036 Knots Heading: 002º Ground Speed: 504 Knots Altitude 32290 ft
19:48 Wind:226º@054 Knots Heading: 001º Ground Speed: 520 Knots Altitude 32142 ft
19:53 TOD
19:53 Fuel Weight: 14931 Lb
20:03 Wind:230º@065 Knots Heading: 320º Ground Speed: 405 Knots Altitude 17132 ft
20:18 Wind:233º@026 Knots Heading: 248º Ground Speed: 181 Knots Altitude 3018 ft
20:20 Flaps:1 at 191 Knots
20:20 Flaps:2 at 195 Knots
20:20 Gear Down: 193 Knots
20:20 Flaps:3 at 168 Knots
20:22 Flaps:4 at 136 Knots
20:24 TouchDown:Rate -242 ft/min Speed: 126 Knots
20:24 VATSIM:EDDG 041950Z 23017G27KT 9999 FEW025 BKN030 BKN250 06/03 Q1007 NOSIG
20:24 Land
20:24 Wind:231º@017 Knots
20:24 Heading: 250º
20:24 Flight Duration: 01:36
20:24 Landing Weight: 191526 Lbs
20:24 POS N52º 08´ 01´´ E007º 40´ 49´´
20:30 CRASH
20:31 Parking brakes on
20:31 Block to Block Duration: 01:51
20:31 Final Fuel: 11910 Lbls
20:31 Spent Fuel: 21081 Lbls
20:31 Flight Length: 508 NM
20:31 TOD Land Length: 135 NM

Exportar CSV

Powered by Drupal - Modified by Danger4k